createdAt,value
2019-03-05T06:30:34.240Z,0.55
2019-03-05T06:33:02.524Z,0.93
2019-03-05T06:35:30.792Z,1.10
2019-03-05T06:37:59.064Z,1.02
2019-03-05T06:40:29.069Z,0.95
2019-03-05T06:42:57.323Z,1.30
2019-03-05T06:45:25.637Z,1.10
2019-03-05T06:47:56.268Z,1.52
2019-03-05T06:50:25.571Z,1.20
2019-03-05T06:52:53.847Z,1.12
2019-03-05T06:55:22.139Z,1.25
2019-03-05T06:57:52.127Z,1.10
2019-03-05T07:00:40.387Z,1.02
2019-03-05T07:03:09.554Z,1.60
2019-03-05T07:06:14.107Z,1.40
2019-03-05T07:08:54.719Z,1.00
2019-03-05T07:11:47.228Z,1.45
2019-03-05T07:14:24.192Z,1.05
2019-03-05T07:16:58.683Z,1.12
2019-03-05T07:19:35.884Z,1.20
2019-03-05T07:22:18.208Z,1.02
2019-03-05T07:24:47.709Z,1.42
2019-03-05T07:27:25.287Z,1.20
2019-03-05T07:29:55.588Z,1.20
2019-03-05T07:32:23.867Z,1.30
2019-03-05T07:34:52.315Z,1.07
2019-03-05T07:37:20.639Z,1.22
2019-03-05T07:39:50.564Z,0.80
2019-03-05T07:42:20.667Z,1.37
2019-03-05T07:44:48.927Z,1.10
2019-03-05T07:47:17.188Z,1.25
2019-03-05T07:49:46.763Z,1.07
2019-03-05T07:52:17.763Z,1.10
2019-03-05T07:54:49.328Z,0.90
2019-03-05T07:57:17.572Z,0.95
2019-03-05T07:59:45.837Z,1.07
2019-03-05T08:02:14.102Z,0.90
2019-03-05T08:04:42.377Z,0.98
2019-03-05T08:07:10.620Z,1.00
2019-03-05T08:09:39.005Z,1.00
2019-03-05T08:12:27.994Z,0.60
2019-03-05T08:15:11.275Z,0.93
2019-03-05T08:17:39.599Z,1.05
2019-03-05T08:20:10.827Z,0.80
2019-03-05T08:22:39.175Z,0.80
2019-03-05T08:25:10.480Z,1.05
2019-03-05T08:27:40.620Z,1.00
2019-03-05T08:30:15.043Z,0.80
2019-03-05T08:32:43.494Z,0.98
2019-03-05T08:35:13.327Z,1.20
2019-03-05T08:37:41.584Z,1.00
2019-03-05T08:40:14.869Z,0.80
2019-03-05T08:42:43.228Z,1.40
2019-03-05T08:45:14.154Z,1.10
2019-03-05T08:47:42.426Z,0.85
2019-03-05T08:50:14.697Z,1.00
2019-03-05T08:52:42.960Z,1.00
2019-03-05T08:55:12.119Z,0.72
2019-03-05T08:57:41.628Z,0.88
2019-03-05T09:00:18.891Z,0.80
2019-03-05T09:02:49.006Z,0.80
2019-03-05T09:05:20.560Z,0.90
2019-03-05T09:07:48.983Z,1.00
2019-03-05T09:10:26.951Z,0.93
2019-03-05T09:12:55.231Z,0.95
2019-03-05T09:15:25.141Z,0.90
2019-03-05T09:17:57.711Z,0.80
2019-03-05T09:22:56.564Z,0.70
2019-03-05T09:25:28.110Z,0.90
2019-03-05T09:27:56.369Z,1.40
2019-03-05T09:30:24.702Z,0.82
2019-03-05T09:32:52.968Z,0.90
2019-03-05T09:35:25.645Z,0.80
2019-03-05T09:37:55.554Z,0.90
2019-03-05T09:40:26.107Z,1.07
2019-03-05T09:42:54.372Z,0.70
2019-03-05T09:45:22.707Z,0.72
2019-03-05T09:47:50.985Z,0.90
2019-03-05T09:50:19.693Z,0.80
2019-03-05T09:52:55.020Z,0.95
2019-03-05T09:55:25.244Z,0.72
2019-03-05T09:57:53.883Z,1.00
2019-03-05T10:00:23.884Z,0.90
2019-03-05T10:02:52.216Z,1.25
2019-03-05T10:05:20.619Z,0.90
2019-03-05T10:07:49.264Z,0.70
2019-03-05T10:10:22.119Z,0.70
2019-03-05T10:12:52.330Z,0.80
2019-03-05T10:15:22.104Z,0.65
2019-03-05T10:17:50.367Z,0.85
2019-03-05T10:20:22.703Z,0.70
2019-03-05T10:22:50.959Z,0.70
2019-03-05T10:25:23.828Z,1.00
2019-03-05T10:27:52.135Z,0.55
2019-03-05T10:30:28.927Z,0.62
2019-03-05T10:33:12.131Z,0.70
2019-03-05T10:35:40.473Z,1.05
2019-03-05T10:38:09.769Z,0.50
2019-03-05T10:40:44.022Z,0.55
2019-03-05T10:43:16.180Z,0.62
2019-03-05T10:45:47.060Z,0.50
2019-03-05T10:48:17.759Z,0.60
2019-03-05T10:50:46.594Z,0.50
2019-03-05T10:53:14.914Z,0.50
2019-03-05T10:55:43.204Z,0.75
2019-03-05T10:58:14.816Z,1.02
2019-03-05T11:00:47.825Z,0.60
2019-03-05T11:03:16.711Z,0.62
2019-03-05T11:05:45.155Z,0.50
2019-03-05T11:08:18.728Z,1.00
2019-03-05T11:10:47.008Z,0.55
2019-03-05T11:13:15.276Z,0.60
2019-03-05T11:15:43.552Z,0.85
2019-03-05T11:18:12.485Z,0.80
2019-03-05T11:20:40.740Z,0.90
2019-03-05T11:23:11.527Z,0.70
2019-03-05T11:25:39.124Z,0.70
2019-03-05T11:28:07.396Z,0.50
2019-03-05T11:30:37.974Z,0.57
2019-03-05T11:33:06.946Z,0.88
2019-03-05T11:35:35.748Z,0.70
2019-03-05T11:38:04.024Z,0.42
2019-03-05T11:40:32.288Z,0.50
2019-03-05T11:43:06.803Z,2.75
2019-03-05T11:45:35.153Z,0.80
2019-03-05T11:48:10.221Z,0.50
2019-03-05T11:50:38.494Z,0.47
2019-03-05T11:53:06.768Z,0.47
2019-03-05T11:55:35.056Z,0.70
2019-03-05T11:58:03.419Z,0.90
2019-03-05T12:00:40.916Z,0.80
2019-03-05T12:03:09.214Z,0.70
2019-03-05T12:05:37.468Z,0.60
2019-03-05T12:08:05.728Z,0.70
2019-03-05T12:10:34.007Z,0.65
2019-03-05T12:13:09.219Z,0.60
2019-03-05T12:15:43.868Z,0.40
2019-03-05T12:18:12.107Z,0.60
2019-03-05T12:20:40.383Z,0.50
2019-03-05T12:23:10.301Z,0.55
2019-03-05T12:25:39.837Z,0.65
2019-03-05T12:28:10.498Z,0.70
2019-03-05T12:30:38.634Z,0.45
2019-03-05T12:33:09.267Z,0.60
2019-03-05T12:35:37.606Z,0.65
2019-03-05T12:38:05.932Z,0.80
2019-03-05T12:40:34.198Z,0.72
2019-03-05T12:43:02.548Z,1.12
2019-03-05T12:45:30.828Z,0.62
2019-03-05T12:47:59.151Z,0.40
2019-03-05T12:50:28.952Z,0.60
2019-03-05T12:52:57.561Z,1.02
2019-03-05T12:55:27.524Z,0.50
2019-03-05T12:57:55.804Z,0.90
2019-03-05T13:00:28.743Z,0.60
2019-03-05T13:02:57.137Z,0.70
2019-03-05T13:05:25.412Z,1.10
2019-03-05T13:07:56.370Z,0.55
2019-03-05T13:10:34.873Z,0.40
2019-03-05T13:12:58.584Z,0.62
2019-03-05T13:15:31.630Z,0.60
2019-03-05T13:17:59.915Z,0.72
2019-03-05T13:20:28.182Z,0.62
2019-03-05T13:22:59.144Z,0.55
2019-03-05T13:25:28.638Z,0.88
2019-03-05T13:28:01.300Z,0.80
2019-03-05T13:30:28.933Z,0.70
2019-03-05T13:32:59.143Z,0.78
2019-03-05T13:35:30.555Z,0.70
2019-03-05T13:38:07.512Z,0.80
2019-03-05T13:40:38.253Z,0.70
2019-03-05T13:43:04.456Z,0.70
2019-03-05T13:45:32.742Z,0.80
2019-03-05T13:48:19.717Z,0.85
2019-03-05T13:51:07.818Z,0.60
2019-03-05T13:54:01.347Z,0.75
2019-03-05T13:56:51.957Z,0.60
2019-03-05T13:59:42.708Z,0.55
2019-03-05T14:02:14.346Z,0.70
2019-03-05T14:04:57.317Z,0.60
2019-03-05T14:07:45.285Z,0.78
2019-03-05T14:10:13.615Z,0.70
2019-03-05T14:12:43.507Z,0.80
2019-03-05T14:15:12.268Z,0.90
2019-03-05T14:17:41.750Z,0.80
2019-03-05T14:20:13.497Z,0.80
2019-03-05T14:22:41.854Z,0.68
2019-03-05T14:25:12.708Z,0.70
2019-03-05T14:27:41.029Z,0.80
2019-03-05T14:30:15.358Z,0.90
2019-03-05T14:32:43.685Z,0.65
2019-03-05T14:35:13.579Z,0.80
2019-03-05T14:37:41.925Z,0.75
2019-03-05T14:40:24.218Z,0.70
2019-03-05T14:42:46.116Z,0.70
2019-03-05T14:45:20.469Z,0.60
2019-03-05T14:47:48.797Z,0.70
2019-03-05T14:50:17.137Z,0.70
2019-03-05T14:52:45.478Z,1.00
2019-03-05T14:55:15.429Z,0.80
2019-03-05T14:57:43.813Z,0.95
2019-03-05T15:00:15.661Z,0.80
2019-03-05T15:02:44.002Z,0.70
2019-03-05T15:05:12.353Z,0.70
2019-03-05T15:07:40.718Z,0.80
2019-03-05T15:10:09.383Z,0.72
2019-03-05T15:12:38.647Z,1.10
2019-03-05T15:15:21.451Z,0.80
2019-03-05T15:17:52.258Z,0.70
2019-03-05T15:20:20.608Z,0.90
2019-03-05T15:22:48.855Z,0.82
2019-03-05T15:25:17.318Z,0.80
2019-03-05T15:27:45.652Z,1.02
2019-03-05T15:30:25.147Z,0.70
2019-03-05T15:32:53.748Z,0.60
2019-03-05T15:35:22.222Z,0.68
2019-03-05T15:37:50.531Z,0.80
2019-03-05T15:40:19.510Z,0.70
2019-03-05T15:42:47.964Z,0.62
2019-03-05T15:45:18.820Z,0.82
2019-03-05T15:47:47.184Z,0.80
2019-03-05T15:50:17.616Z,0.70
2019-03-05T15:52:45.898Z,1.10
2019-03-05T15:55:15.769Z,0.70
2019-03-05T15:57:44.055Z,0.90
2019-03-05T16:00:15.773Z,0.90
2019-03-05T16:02:44.081Z,0.87
2019-03-05T16:05:20.834Z,1.00
2019-03-05T16:07:51.633Z,1.10
2019-03-05T16:10:19.960Z,1.00
2019-03-05T16:12:55.267Z,1.17
2019-03-05T16:15:23.599Z,1.00
2019-03-05T16:17:51.860Z,1.00
2019-03-05T16:20:20.395Z,0.95
2019-03-05T16:22:51.082Z,0.90
2019-03-05T16:25:22.178Z,1.00
2019-03-05T16:27:50.921Z,1.00
2019-03-05T16:30:45.928Z,1.00
2019-03-05T16:33:36.379Z,1.05
2019-03-05T16:36:25.517Z,0.90
2019-03-05T16:38:59.476Z,0.78
2019-03-05T16:41:32.204Z,1.27
2019-03-05T16:44:18.247Z,1.20
2019-03-05T16:46:51.183Z,0.72
2019-03-05T16:49:37.475Z,1.35
2019-03-05T16:52:07.391Z,1.20
2019-03-05T16:54:37.393Z,0.90
2019-03-05T16:57:13.150Z,1.12
2019-03-05T16:59:53.273Z,0.90
2019-03-05T17:02:35.167Z,1.37
2019-03-05T17:05:22.393Z,1.40
2019-03-05T17:07:58.390Z,1.40
2019-03-05T17:10:44.534Z,1.30
2019-03-05T17:13:14.500Z,1.20
2019-03-05T17:15:44.469Z,1.35
2019-03-05T17:18:18.465Z,1.60
2019-03-05T17:20:46.745Z,2.30
2019-03-05T17:23:17.715Z,1.32
2019-03-05T17:25:46.253Z,1.50
2019-03-05T17:28:14.589Z,1.60
2019-03-05T17:30:42.937Z,1.55
2019-03-05T17:33:15.091Z,1.40
2019-03-05T17:35:44.855Z,1.42
2019-03-05T17:38:13.190Z,1.50
2019-03-05T17:40:43.122Z,1.40
2019-03-05T17:43:13.167Z,1.67
2019-03-05T17:45:41.495Z,1.50
2019-03-05T17:48:11.291Z,1.95
2019-03-05T17:50:39.652Z,1.85
2019-03-05T17:53:07.918Z,1.60
2019-03-05T17:55:36.184Z,2.00
2019-03-05T17:58:06.010Z,2.30
2019-03-05T18:00:35.984Z,2.37
2019-03-05T18:03:04.704Z,2.45
2019-03-05T18:05:33.016Z,2.02
2019-03-05T18:08:01.411Z,1.75
2019-03-05T18:10:29.707Z,1.52
2019-03-05T18:12:58.043Z,1.62
2019-03-05T18:15:26.381Z,1.52
2019-03-05T18:17:54.647Z,2.15
2019-03-05T18:20:24.130Z,2.00
2019-03-05T18:22:52.515Z,2.10
2019-03-05T18:25:20.800Z,1.92
2019-03-05T18:27:49.113Z,2.20
2019-03-05T18:30:23.154Z,2.30
2019-03-05T18:32:53.056Z,2.10
2019-03-05T18:35:21.312Z,2.25
2019-03-05T18:37:49.596Z,2.30
2019-03-05T18:40:20.344Z,1.60
2019-03-05T18:42:48.612Z,2.50
2019-03-05T18:45:19.950Z,2.58
2019-03-05T18:47:55.780Z,1.92
2019-03-05T18:50:24.044Z,2.50
2019-03-05T18:52:59.738Z,1.85
2019-03-05T18:55:28.504Z,2.10
2019-03-05T18:58:01.115Z,3.27
2019-03-05T19:03:03.080Z,1.90
2019-03-05T19:05:31.368Z,1.90
2019-03-05T19:07:59.699Z,2.12
2019-03-05T19:10:28.103Z,2.10
2019-03-05T19:12:58.013Z,2.15
2019-03-05T19:15:30.007Z,2.47
2019-03-05T19:17:58.346Z,1.90
2019-03-05T19:20:28.808Z,2.05
2019-03-05T19:22:57.161Z,2.17
2019-03-05T19:25:28.207Z,2.00
2019-03-05T19:27:56.614Z,2.40
2019-03-05T19:30:28.261Z,2.67
2019-03-05T19:32:56.585Z,1.72
2019-03-05T19:35:24.864Z,1.87
2019-03-05T19:37:53.226Z,1.50
2019-03-05T19:40:24.633Z,1.98
2019-03-05T19:42:52.907Z,2.62
2019-03-05T19:45:21.265Z,1.95
2019-03-05T19:47:49.547Z,2.10
2019-03-05T19:50:22.177Z,2.47
2019-03-05T19:55:25.537Z,2.40
2019-03-05T19:57:55.520Z,2.25
2019-03-05T20:00:28.189Z,3.47
2019-03-05T20:02:56.529Z,2.20
2019-03-05T20:05:26.953Z,2.30
2019-03-05T20:07:55.209Z,1.65
2019-03-05T20:10:37.203Z,1.80
2019-03-05T20:13:05.545Z,1.60
2019-03-05T20:15:35.431Z,1.80
2019-03-05T20:18:03.703Z,2.95
2019-03-05T20:20:32.075Z,2.10
2019-03-05T20:23:00.603Z,2.00
2019-03-05T20:25:30.225Z,1.82
2019-03-05T20:27:58.491Z,1.75
2019-03-05T20:30:28.501Z,1.62
2019-03-05T20:32:56.810Z,1.70
2019-03-05T20:35:25.145Z,1.65
2019-03-05T20:37:53.410Z,1.52
2019-03-05T20:40:26.876Z,1.30
2019-03-05T20:42:59.453Z,1.75
2019-03-05T20:48:00.201Z,1.60
2019-03-05T20:50:28.533Z,1.60
2019-03-05T20:52:56.886Z,1.90
2019-03-05T20:55:26.679Z,1.85
2019-03-05T20:57:55.092Z,2.00
2019-03-05T21:00:31.627Z,1.80
2019-03-05T21:03:06.786Z,2.17
2019-03-05T21:05:46.243Z,1.85
2019-03-05T21:08:14.582Z,1.90
2019-03-05T21:10:42.950Z,1.77
2019-03-05T21:13:11.588Z,1.75
2019-03-05T21:15:39.920Z,1.55
2019-03-05T21:18:12.585Z,3.70
2019-03-05T21:23:08.512Z,2.02
2019-03-05T21:25:36.776Z,2.30
2019-03-05T21:28:05.091Z,1.82
2019-03-05T21:30:37.351Z,1.80
2019-03-05T21:33:05.686Z,1.98
2019-03-05T21:35:46.246Z,2.00
2019-03-05T21:38:14.573Z,1.92
2019-03-05T21:40:44.504Z,2.60
2019-03-05T21:43:12.768Z,1.95
2019-03-05T21:45:50.501Z,2.35
2019-03-05T21:48:20.540Z,2.37
2019-03-05T21:50:51.020Z,2.30
2019-03-05T21:53:19.325Z,2.30
2019-03-05T21:55:47.664Z,2.30
2019-03-05T21:58:16.009Z,2.72
2019-03-05T22:00:44.368Z,2.00
2019-03-05T22:03:12.631Z,2.52
2019-03-05T22:05:44.027Z,2.22
2019-03-05T22:08:14.600Z,2.27
2019-03-05T22:10:42.292Z,1.82
2019-03-05T22:13:10.548Z,2.10
2019-03-05T22:15:41.980Z,1.70
2019-03-05T22:18:10.716Z,2.08
2019-03-05T22:20:45.075Z,2.17
2019-03-05T22:23:15.067Z,1.60
2019-03-05T22:25:43.342Z,1.90
2019-03-05T22:28:11.601Z,1.50
2019-03-05T22:30:39.861Z,1.75
2019-03-05T22:33:08.602Z,1.47
2019-03-05T22:35:36.866Z,1.72
2019-03-05T22:38:05.228Z,1.90
2019-03-05T22:40:33.580Z,1.95
2019-03-05T22:43:01.894Z,1.80
2019-03-05T22:45:37.059Z,1.90
2019-03-05T22:48:07.695Z,2.00
2019-03-05T22:50:35.316Z,1.90
2019-03-05T22:53:03.577Z,1.85
2019-03-05T22:55:31.915Z,1.80
2019-03-05T22:58:00.172Z,1.60
2019-03-05T23:00:38.903Z,1.77
2019-03-05T23:03:12.643Z,1.77
2019-03-05T23:05:40.901Z,2.00
2019-03-05T23:08:09.171Z,2.10
2019-03-05T23:10:37.537Z,1.82
2019-03-05T23:13:08.715Z,1.77
2019-03-05T23:15:36.947Z,2.25
2019-03-05T23:18:05.215Z,2.40
2019-03-05T23:20:33.475Z,1.95
2019-03-05T23:23:03.575Z,2.42
2019-03-05T23:25:31.909Z,2.55
2019-03-05T23:28:00.176Z,2.70
2019-03-05T23:30:30.087Z,2.65
2019-03-05T23:33:02.567Z,2.37
2019-03-05T23:37:58.479Z,2.33
2019-03-05T23:40:26.744Z,2.77
2019-03-05T23:42:55.099Z,2.87
2019-03-05T23:45:25.064Z,2.60
2019-03-05T23:47:54.460Z,2.70
2019-03-05T23:50:22.803Z,3.08
2019-03-05T23:52:51.068Z,2.75
2019-03-05T23:55:19.337Z,3.00
2019-03-05T23:57:47.696Z,2.75
